Time;durP1;ratioP1;P1;durP2;ratioP2;P2;SDS_P1;SDS_P2;PMS_P1;PMS_P2;Temp;Humidity;BMP_temperature;BMP_pressure;BME280_temperature;BME280_humidity;BME280_pressure;Samples;Min_cycle;Max_cycle;Signal;HPM_P1;HPM_P2
2022/06/20 00:01:12;;;;;;;4.07;1.13;;;15.00;77.00;;;;;;5102166;28;20030;-73
2022/06/20 00:03:41;;;;;;;8.32;1.17;;;15.00;77.00;;;;;;5104497;28;20032;-73
2022/06/20 00:06:16;;;;;;;1.40;1.00;;;15.00;77.20;;;;;;5098133;28;20024;-71
2022/06/20 00:08:42;;;;;;;5.82;1.23;;;15.00;77.20;;;;;;5102372;28;20181;-73
2022/06/20 00:11:19;;;;;;;2.20;0.98;;;15.00;77.20;;;;;;5101489;28;20504;-75
2022/06/20 00:13:48;;;;;;;20.60;1.40;;;15.00;77.10;;;;;;5099307;28;20077;-73
2022/06/20 00:16:19;;;;;;;3.90;0.90;;;14.90;77.00;;;;;;5098031;28;20383;-74
2022/06/20 00:18:47;;;;;;;4.43;1.08;;;14.90;76.90;;;;;;5099549;28;20019;-74
2022/06/20 00:21:16;;;;;;;2.15;0.80;;;15.00;77.10;;;;;;5102158;28;20083;-74
2022/06/20 00:23:43;;;;;;;5.22;0.93;;;14.90;77.00;;;;;;5104230;28;20390;-72
2022/06/20 00:26:10;;;;;;;3.35;0.90;;;14.90;77.00;;;;;;5102142;28;20032;-73
2022/06/20 00:28:36;;;;;;;5.38;0.73;;;14.90;77.20;;;;;;5101354;28;20398;-73
2022/06/20 00:31:04;;;;;;;2.25;0.70;;;14.90;77.10;;;;;;5105135;28;20514;-75
2022/06/20 00:33:30;;;;;;;1.55;1.45;;;14.90;77.10;;;;;;5102999;28;20170;-72
2022/06/20 00:35:59;;;;;;;6.22;0.90;;;14.90;77.10;;;;;;5102867;28;20036;-73
2022/06/20 00:38:26;;;;;;;3.97;1.25;;;14.90;77.10;;;;;;5106962;28;20694;-71
2022/06/20 00:40:56;;;;;;;4.53;0.98;;;14.90;77.10;;;;;;5102999;28;20035;-73
2022/06/20 00:43:35;;;;;;;4.45;1.35;;;14.90;77.20;;;;;;5102903;28;20032;-76
2022/06/20 00:46:15;;;;;;;6.03;1.15;;;14.80;77.20;;;;;;5104314;28;20036;-76
2022/06/20 00:48:51;;;;;;;4.53;0.73;;;14.90;77.90;;;;;;5107918;28;20027;-72
2022/06/20 00:51:41;;;;;;;2.63;0.70;;;14.80;77.20;;;;;;5106438;28;20107;-74
2022/06/20 00:54:26;;;;;;;1.13;0.60;;;14.80;77.30;;;;;;5100515;28;20027;-73
2022/06/20 00:57:10;;;;;;;12.38;1.00;;;14.80;77.30;;;;;;5104543;28;20327;-72
2022/06/20 00:59:45;;;;;;;5.32;0.77;;;14.80;77.50;;;;;;5107558;28;20040;-73
2022/06/20 01:02:17;;;;;;;8.70;0.77;;;14.80;77.40;;;;;;5102944;28;20104;-72
2022/06/20 01:04:51;;;;;;;2.20;0.73;;;14.80;77.30;;;;;;5104397;28;20051;-73
2022/06/20 01:07:35;;;;;;;5.43;1.17;;;14.80;77.20;;;;;;5103928;28;20112;-73
2022/06/20 01:10:03;;;;;;;4.80;1.00;;;14.80;77.20;;;;;;5102971;28;20024;-73
2022/06/20 01:12:37;;;;;;;2.88;0.60;;;14.80;77.50;;;;;;5104722;28;20024;-72
2022/06/20 01:15:28;;;;;;;12.45;1.58;;;14.80;77.50;;;;;;5104027;28;20490;-70
2022/06/20 01:17:56;;;;;;;3.50;1.17;;;14.70;77.90;;;;;;5106781;28;20888;-71
2022/06/20 01:20:33;;;;;;;6.60;1.05;;;14.80;78.80;;;;;;5103019;28;20051;-72
2022/06/20 01:23:05;;;;;;;2.70;1.27;;;14.80;79.10;;;;;;5103929;28;20043;-74
2022/06/20 01:25:47;;;;;;;4.03;1.10;;;14.80;79.40;;;;;;5105320;28;20027;-73
2022/06/20 01:28:17;;;;;;;1.67;0.60;;;14.80;79.10;;;;;;5105424;28;20933;-72
2022/06/20 01:30:47;;;;;;;2.25;1.20;;;14.80;78.80;;;;;;5103367;28;20453;-73
2022/06/20 01:33:17;;;;;;;8.20;1.15;;;14.70;78.60;;;;;;5105200;28;20137;-71
2022/06/20 01:38:29;;;;;;;7.93;1.15;;;14.80;79.40;;;;;;5104270;28;20650;-72
2022/06/20 01:43:41;;;;;;;8.95;1.13;;;14.80;80.20;;;;;;5103122;28;20151;-73
2022/06/20 01:46:11;;;;;;;7.18;1.08;;;14.80;80.40;;;;;;5101716;28;20728;-73
2022/06/20 01:49:00;;;;;;;9.27;1.73;;;14.80;80.40;;;;;;5105912;28;20506;-71
2022/06/20 01:51:56;;;;;;;3.38;0.95;;;14.80;80.00;;;;;;5104545;28;20051;-72
2022/06/20 01:54:26;;;;;;;5.40;1.58;;;14.80;79.80;;;;;;5100911;28;20039;-70
2022/06/20 01:56:53;;;;;;;7.85;1.80;;;14.70;79.70;;;;;;5099630;28;20944;-72
2022/06/20 01:59:26;;;;;;;8.98;1.17;;;14.80;79.90;;;;;;5104871;28;20020;-72
2022/06/20 02:01:54;;;;;;;5.35;1.13;;;14.70;80.10;;;;;;5105712;28;20028;-76
2022/06/20 02:04:25;;;;;;;3.70;0.95;;;14.70;80.30;;;;;;5105728;28;20036;-71
2022/06/20 02:06:52;;;;;;;10.52;1.17;;;14.70;80.20;;;;;;5100209;28;20056;-71
2022/06/20 02:09:19;;;;;;;3.83;0.93;;;14.70;80.00;;;;;;5105811;28;20494;-73
2022/06/20 02:11:47;;;;;;;4.72;1.05;;;14.70;79.90;;;;;;5105092;28;20629;-72
2022/06/20 02:14:32;;;;;;;11.77;1.48;;;14.70;79.70;;;;;;5100923;28;20070;-70
2022/06/20 02:17:08;;;;;;;7.22;2.17;;;14.70;79.70;;;;;;5102894;28;20048;-74
2022/06/20 02:19:40;;;;;;;7.75;1.40;;;14.70;81.00;;;;;;5100038;28;20034;-72
2022/06/20 02:22:08;;;;;;;9.38;2.05;;;14.70;80.30;;;;;;5102744;28;20532;-72
2022/06/20 02:24:38;;;;;;;4.03;0.75;;;14.70;80.10;;;;;;5106317;28;20066;-72
2022/06/20 02:27:10;;;;;;;2.17;1.42;;;14.70;79.80;;;;;;5105197;28;20382;-71
2022/06/20 02:29:37;;;;;;;3.38;0.75;;;14.60;79.60;;;;;;5104379;28;20490;-70
2022/06/20 02:32:27;;;;;;;3.30;0.63;;;14.60;79.50;;;;;;5102235;28;20120;-72
2022/06/20 02:34:54;;;;;;;3.25;1.05;;;14.70;79.50;;;;;;5103757;28;20126;-72
2022/06/20 02:37:24;;;;;;;3.83;0.98;;;14.60;79.40;;;;;;5099967;28;20130;-70
2022/06/20 02:40:00;;;;;;;3.03;1.17;;;14.60;79.50;;;;;;5102920;28;20031;-72
2022/06/20 02:42:51;;;;;;;6.00;0.90;;;14.60;79.30;;;;;;5104900;28;20351;-71
2022/06/20 02:45:18;;;;;;;6.55;1.10;;;14.60;79.20;;;;;;5100789;28;20027;-70
2022/06/20 02:47:49;;;;;;;1.80;1.30;;;14.60;79.20;;;;;;5101168;28;20027;-72
2022/06/20 02:50:21;;;;;;;9.40;1.17;;;14.50;79.20;;;;;;5100137;28;20497;-72
2022/06/20 02:52:52;;;;;;;6.80;0.90;;;14.50;79.20;;;;;;5101803;28;20032;-73
2022/06/20 02:55:20;;;;;;;2.53;1.00;;;14.50;79.30;;;;;;5105152;28;20054;-73
2022/06/20 02:57:55;;;;;;;4.53;1.15;;;14.50;79.10;;;;;;5101197;28;20027;-72
2022/06/20 03:00:28;;;;;;;7.82;1.63;;;14.50;79.10;;;;;;5101219;28;20131;-72
2022/06/20 03:03:03;;;;;;;4.80;1.25;;;14.50;78.90;;;;;;5101317;28;20035;-71
2022/06/20 03:05:29;;;;;;;12.00;1.23;;;14.50;78.90;;;;;;5101592;28;20036;-72
2022/06/20 03:07:56;;;;;;;5.72;1.63;;;14.40;78.90;;;;;;5103732;28;20059;-71
2022/06/20 03:10:32;;;;;;;2.45;1.02;;;14.40;78.80;;;;;;5104568;28;20039;-72
2022/06/20 03:12:59;;;;;;;0.77;0.75;;;14.40;78.70;;;;;;5103142;28;20506;-72
2022/06/20 03:15:27;;;;;;;5.05;1.15;;;14.40;78.60;;;;;;5102290;28;20043;-71
2022/06/20 03:17:57;;;;;;;3.33;1.10;;;14.30;78.40;;;;;;5102502;28;20032;-72
2022/06/20 03:20:25;;;;;;;3.97;1.23;;;14.30;78.40;;;;;;5099225;28;20054;-70
2022/06/20 03:23:28;;;;;;;4.80;1.40;;;14.30;78.40;;;;;;5102784;28;20035;-72
2022/06/20 03:25:57;;;;;;;6.93;1.17;;;14.30;79.00;;;;;;5105215;28;20080;-72
2022/06/20 03:28:24;;;;;;;6.25;1.30;;;14.30;79.70;;;;;;5099026;28;20028;-74
2022/06/20 03:30:52;;;;;;;4.68;1.95;;;14.30;80.00;;;;;;5104498;28;20031;-73
2022/06/20 03:33:21;;;;;;;5.30;0.98;;;14.30;79.90;;;;;;5104601;28;20055;-71
2022/06/20 03:36:02;;;;;;;4.05;0.95;;;14.30;79.00;;;;;;5100004;28;20640;-73
2022/06/20 03:38:29;;;;;;;7.38;1.60;;;14.30;78.20;;;;;;5100412;28;20028;-73
2022/06/20 03:40:55;;;;;;;2.78;0.93;;;14.20;77.70;;;;;;5101428;28;20506;-72
2022/06/20 03:43:26;;;;;;;3.90;1.25;;;14.20;77.40;;;;;;5100016;28;20024;-74
2022/06/20 03:46:25;;;;;;;4.35;1.35;;;14.10;77.20;;;;;;5097450;28;20510;-75
2022/06/20 03:49:06;;;;;;;4.70;1.20;;;14.10;77.20;;;;;;5087986;28;20489;-71
2022/06/20 03:51:42;;;;;;;25.67;2.50;;;14.10;77.00;;;;;;5099846;28;20032;-72
2022/06/20 03:54:22;;;;;;;40.08;14.32;;;14.10;76.90;;;;;;5098125;28;20443;-72
2022/06/20 03:56:55;;;;;;;21.23;13.63;;;14.10;77.20;;;;;;5102795;28;20115;-73
2022/06/20 03:59:44;;;;;;;9.60;6.97;;;14.10;77.30;;;;;;5099428;28;20026;-74
2022/06/20 04:02:14;;;;;;;12.68;4.18;;;14.00;77.70;;;;;;5098403;28;20035;-72
2022/06/20 04:04:51;;;;;;;8.68;2.55;;;14.00;77.70;;;;;;5090763;28;20492;-68
2022/06/20 04:07:38;;;;;;;3.03;1.15;;;14.00;77.50;;;;;;5105848;28;20063;-68
2022/06/20 04:13:26;;;;;;;2.92;1.05;;;14.00;78.60;;;;;;5106620;28;20039;-69
2022/06/20 04:16:05;;;;;;;13.40;6.57;;;14.00;78.20;;;;;;5098605;27;20483;-70
2022/06/20 04:18:53;;;;;;;28.75;14.90;;;13.90;77.90;;;;;;5103589;28;20039;-68
2022/06/20 04:21:44;;;;;;;12.45;9.95;;;13.90;77.80;;;;;;5105883;28;20102;-70
2022/06/20 04:24:21;;;;;;;9.45;5.72;;;13.90;77.80;;;;;;5109016;28;20035;-73
2022/06/20 04:26:51;;;;;;;4.38;2.45;;;13.90;77.80;;;;;;5102201;28;20106;-72
2022/06/20 04:29:25;;;;;;;5.55;3.05;;;13.90;77.60;;;;;;5104056;27;20082;-71
2022/06/20 04:31:58;;;;;;;15.52;12.30;;;13.90;77.60;;;;;;5107272;27;20843;-69
2022/06/20 04:34:43;;;;;;;49.95;35.63;;;13.90;77.70;;;;;;5107227;28;20020;-71
2022/06/20 04:37:13;;;;;;;24.52;16.95;;;13.90;78.00;;;;;;5098047;27;20031;-70
2022/06/20 04:39:58;;;;;;;15.07;9.43;;;13.80;78.20;;;;;;5102597;28;20028;-69
2022/06/20 04:42:47;;;;;;;8.75;4.65;;;13.80;78.30;;;;;;5103143;28;20514;-71
2022/06/20 04:45:40;;;;;;;6.70;2.75;;;13.80;78.50;;;;;;5102379;27;20090;-71
2022/06/20 04:48:16;;;;;;;14.48;2.88;;;13.80;78.80;;;;;;5105436;27;20123;-72
2022/06/20 04:50:53;;;;;;;8.35;2.42;;;13.80;79.10;;;;;;5105496;28;20028;-72
2022/06/20 04:53:42;;;;;;;5.10;1.40;;;13.80;78.80;;;;;;5106769;28;20115;-70
2022/06/20 04:56:14;;;;;;;3.35;1.50;;;13.80;78.70;;;;;;5108650;27;20078;-78
2022/06/20 04:58:50;;;;;;;4.80;1.65;;;13.80;78.60;;;;;;5099924;28;20066;-74
2022/06/20 05:01:19;;;;;;;2.45;1.35;;;13.80;78.60;;;;;;5107187;28;20655;-76
2022/06/20 05:03:57;;;;;;;1.88;1.42;;;13.80;78.50;;;;;;5103196;27;20027;-74
2022/06/20 05:06:27;;;;;;;4.00;1.65;;;13.80;78.30;;;;;;5105276;27;20031;-73
2022/06/20 05:09:00;;;;;;;6.32;1.73;;;13.70;78.20;;;;;;5108371;27;20020;-73
2022/06/20 05:11:47;;;;;;;8.30;1.83;;;13.70;78.20;;;;;;5100469;28;20698;-72
2022/06/20 05:14:17;;;;;;;4.28;1.35;;;13.70;78.10;;;;;;5100413;28;20036;-74
2022/06/20 05:16:48;;;;;;;4.93;1.30;;;13.70;78.10;;;;;;5104963;28;20047;-73
2022/06/20 05:19:38;;;;;;;6.88;1.70;;;13.70;78.10;;;;;;5105315;28;20028;-72
2022/06/20 05:22:16;;;;;;;6.95;1.92;;;13.70;78.10;;;;;;5104669;28;20436;-71
2022/06/20 05:24:44;;;;;;;6.82;1.40;;;13.70;78.20;;;;;;5103303;28;20036;-72
2022/06/20 05:27:33;;;;;;;5.78;1.77;;;13.70;78.30;;;;;;5102829;28;20028;-71
2022/06/20 05:30:01;;;;;;;4.22;1.55;;;13.60;78.40;;;;;;5105332;28;20476;-70
2022/06/20 05:32:44;;;;;;;5.88;1.67;;;13.70;78.60;;;;;;5105137;28;20036;-71
2022/06/20 05:35:47;;;;;;;4.60;1.80;;;13.60;78.50;;;;;;5102817;28;20036;-71
2022/06/20 05:38:26;;;;;;;5.20;2.25;;;13.60;78.30;;;;;;5098466;28;20032;-74
2022/06/20 05:40:56;;;;;;;4.57;2.20;;;13.60;78.30;;;;;;5105646;28;20039;-72
2022/06/20 05:43:23;;;;;;;8.52;2.17;;;13.60;78.70;;;;;;5100174;28;20024;-73
2022/06/20 05:46:04;;;;;;;6.72;1.63;;;13.60;78.70;;;;;;5099254;28;20027;-73
2022/06/20 05:48:55;;;;;;;3.65;1.88;;;13.60;78.50;;;;;;5101710;28;20055;-73
2022/06/20 05:51:27;;;;;;;3.67;1.70;;;13.60;78.50;;;;;;5102034;28;20029;-72
2022/06/20 05:54:00;;;;;;;5.40;2.03;;;13.60;78.60;;;;;;5100135;28;20042;-72
2022/06/20 05:56:44;;;;;;;8.27;2.60;;;13.60;78.50;;;;;;5106276;28;20115;-71
2022/06/20 05:59:27;;;;;;;7.45;2.28;;;13.60;78.50;;;;;;5102723;28;20035;-72
2022/06/20 06:02:22;;;;;;;3.90;2.08;;;13.50;78.50;;;;;;5104949;28;20041;-73
2022/06/20 06:05:07;;;;;;;15.73;2.50;;;13.50;78.60;;;;;;5099097;28;20431;-72
2022/06/20 06:07:47;;;;;;;4.18;1.90;;;13.50;78.90;;;;;;5102799;27;20104;-70
2022/06/20 06:10:52;;;;;;;12.02;2.47;;;13.60;79.20;;;;;;5108674;28;20075;-74
2022/06/20 06:13:38;;;;;;;10.02;4.78;;;13.50;79.10;;;;;;5102387;28;20450;-72
2022/06/20 06:19:09;;;;;;;5.80;2.50;;;13.50;79.10;;;;;;5101813;28;20038;-73
2022/06/20 06:21:37;;;;;;;5.22;2.83;;;13.50;79.00;;;;;;5102889;28;20181;-72
2022/06/20 06:24:06;;;;;;;7.68;2.45;;;13.50;78.90;;;;;;5102702;28;20032;-73
2022/06/20 06:26:35;;;;;;;4.15;2.38;;;13.50;78.80;;;;;;5103406;28;20666;-70
2022/06/20 06:29:04;;;;;;;5.15;2.22;;;13.50;78.90;;;;;;5104361;28;20074;-72
2022/06/20 06:31:40;;;;;;;4.80;2.28;;;13.50;78.80;;;;;;5101318;28;20027;-72
2022/06/20 06:34:21;;;;;;;3.83;2.05;;;13.50;78.80;;;;;;5103684;28;20036;-71
2022/06/20 06:37:08;;;;;;;6.10;2.92;;;13.50;78.80;;;;;;5105030;28;20047;-72
2022/06/20 06:39:58;;;;;;;6.20;2.55;;;13.50;79.20;;;;;;5105061;28;20015;-71
2022/06/20 06:42:24;;;;;;;8.48;2.85;;;13.40;79.30;;;;;;5102661;28;20027;-73
2022/06/20 06:44:53;;;;;;;5.90;3.05;;;13.50;79.40;;;;;;5103156;28;20074;-75
2022/06/20 06:47:32;;;;;;;6.93;2.80;;;13.50;79.40;;;;;;5103391;27;20031;-72
2022/06/20 06:50:13;;;;;;;8.63;2.58;;;13.50;79.40;;;;;;5101252;28;20059;-72
2022/06/20 06:52:46;;;;;;;5.70;2.88;;;13.50;79.40;;;;;;5102846;27;20050;-72
2022/06/20 06:55:28;;;;;;;5.90;4.18;;;13.50;79.60;;;;;;5101276;27;20440;-72
2022/06/20 06:58:02;;;;;;;10.52;3.08;;;13.50;79.70;;;;;;5103277;28;20689;-73
2022/06/20 07:00:41;;;;;;;5.35;3.13;;;13.50;79.80;;;;;;5104588;27;20724;-73
2022/06/20 07:03:26;;;;;;;8.50;3.60;;;13.50;80.00;;;;;;5102539;28;20036;-73
2022/06/20 07:06:03;;;;;;;6.85;3.17;;;13.50;80.20;;;;;;5104050;28;20866;-76
2022/06/20 07:09:09;;;;;;;7.43;3.70;;;13.50;81.00;;;;;;5102431;27;20077;-72
2022/06/20 07:12:18;;;;;;;9.82;4.85;;;13.50;80.50;;;;;;5099121;28;20821;-74
2022/06/20 07:15:01;;;;;;;13.98;5.13;;;13.50;80.70;;;;;;5100247;28;20407;-71
2022/06/20 07:17:43;;;;;;;11.85;3.78;;;13.60;80.80;;;;;;5101906;28;20066;-73
2022/06/20 07:20:11;;;;;;;12.23;4.00;;;13.60;81.00;;;;;;5103896;28;20044;-72
2022/06/20 07:22:42;;;;;;;15.90;4.50;;;13.60;81.20;;;;;;5098140;27;20035;-72
2022/06/20 07:25:22;;;;;;;10.52;4.05;;;13.60;81.60;;;;;;5102963;28;20022;-72
2022/06/20 07:28:36;;;;;;;8.43;4.50;;;13.70;81.80;;;;;;5101842;28;20058;-74
2022/06/20 07:31:15;;;;;;;9.63;4.00;;;13.70;81.90;;;;;;5093827;28;20039;-73
2022/06/20 07:34:28;;;;;;;6.10;3.78;;;13.70;82.00;;;;;;5097855;28;20020;-71
2022/06/20 07:37:46;;;;;;;6.82;3.33;;;13.80;82.10;;;;;;5105339;28;20138;-74
2022/06/20 07:40:45;;;;;;;16.08;4.07;;;13.80;82.30;;;;;;5095902;28;20074;-73
2022/06/20 07:43:34;;;;;;;10.38;3.83;;;13.80;82.50;;;;;;5100594;28;20031;-72
2022/06/20 07:46:43;;;;;;;11.10;4.00;;;13.90;82.90;;;;;;5101547;28;20034;-73
2022/06/20 07:49:52;;;;;;;8.70;3.50;;;13.90;83.00;;;;;;5098669;28;20047;-70
2022/06/20 07:53:01;;;;;;;12.00;4.85;;;14.00;83.00;;;;;;5099004;28;20036;-70
2022/06/20 07:56:07;;;;;;;13.57;4.82;;;14.00;83.00;;;;;;5103175;28;20655;-71
2022/06/20 07:59:13;;;;;;;9.52;4.70;;;14.00;82.80;;;;;;5099143;28;20031;-70
2022/06/20 08:02:03;;;;;;;10.30;5.38;;;14.10;83.00;;;;;;5102741;28;20036;-71
2022/06/20 08:05:09;;;;;;;13.30;5.20;;;14.10;83.10;;;;;;5101362;28;20028;-71
2022/06/20 08:07:54;;;;;;;10.13;4.53;;;14.10;83.10;;;;;;5102790;28;20112;-75
2022/06/20 08:11:06;;;;;;;8.05;3.92;;;14.20;83.20;;;;;;5103386;28;20057;-71
2022/06/20 08:14:11;;;;;;;10.15;4.03;;;14.20;83.20;;;;;;5098240;28;20550;-73
2022/06/20 08:17:17;;;;;;;6.90;3.95;;;14.30;83.20;;;;;;5101600;28;20091;-71
2022/06/20 08:20:23;;;;;;;11.93;4.47;;;14.30;83.10;;;;;;5101680;28;20039;-75
2022/06/20 08:23:29;;;;;;;9.52;3.92;;;14.30;83.00;;;;;;5105068;28;20027;-74
2022/06/20 08:26:38;;;;;;;11.77;5.03;;;14.40;82.90;;;;;;5100547;28;20039;-72
2022/06/20 08:29:44;;;;;;;4.10;3.20;;;14.40;82.60;;;;;;5098854;28;20036;-71
2022/06/20 08:32:56;;;;;;;3.90;2.97;;;14.40;82.50;;;;;;5100936;28;20036;-75
2022/06/20 08:36:24;;;;;;;2.72;2.47;;;14.40;82.30;;;;;;5061452;28;20040;-72
2022/06/20 08:39:25;;;;;;;5.05;2.50;;;14.50;82.10;;;;;;5101802;28;20032;-71
2022/06/20 08:42:01;;;;;;;2.85;1.98;;;14.60;81.70;;;;;;5102743;28;20566;-71
2022/06/20 08:44:49;;;;;;;7.40;2.33;;;14.60;81.50;;;;;;5101892;28;20048;-71
2022/06/20 08:47:57;;;;;;;4.22;1.83;;;14.60;80.90;;;;;;5096367;28;20102;-69
2022/06/20 08:51:14;;;;;;;7.07;2.33;;;14.70;80.50;;;;;;5078814;28;20485;-72
2022/06/20 08:53:56;;;;;;;2.42;1.73;;;14.70;80.30;;;;;;5107114;28;20043;-71
2022/06/20 08:56:43;;;;;;;10.00;2.65;;;14.80;80.00;;;;;;5105593;28;20105;-72
2022/06/20 08:59:46;;;;;;;14.73;2.13;;;14.80;79.20;;;;;;5101018;28;20040;-73
2022/06/20 09:02:44;;;;;;;7.35;3.17;;;14.90;79.60;;;;;;5106428;28;20070;-73
2022/06/20 09:05:33;;;;;;;5.30;2.28;;;15.00;80.20;;;;;;5102744;28;20482;-72
2022/06/20 09:08:05;;;;;;;2.95;1.83;;;15.10;80.00;;;;;;5102262;28;20063;-73
2022/06/20 09:11:00;;;;;;;6.45;1.80;;;15.30;79.50;;;;;;5106127;28;20035;-72
2022/06/20 09:13:49;;;;;;;4.68;2.35;;;15.30;78.80;;;;;;5100132;28;20036;-73
2022/06/20 09:16:31;;;;;;;5.38;2.35;;;15.30;78.20;;;;;;5101034;28;20351;-72
2022/06/20 09:19:35;;;;;;;5.32;2.10;;;15.40;77.60;;;;;;5099793;28;20085;-73
2022/06/20 09:22:02;;;;;;;2.55;1.50;;;15.50;77.70;;;;;;5103883;28;20043;-71
2022/06/20 09:25:08;;;;;;;3.30;2.50;;;15.50;77.60;;;;;;5103930;28;20032;-72
2022/06/20 09:27:43;;;;;;;4.00;2.00;;;15.60;77.50;;;;;;5102251;28;20139;-73
2022/06/20 09:30:38;;;;;;;4.35;2.45;;;15.70;77.70;;;;;;5103169;28;20055;-73
2022/06/20 09:33:46;;;;;;;6.15;2.30;;;15.70;77.50;;;;;;5099622;28;20111;-76
2022/06/20 09:36:49;;;;;;;3.80;2.15;;;15.80;77.40;;;;;;5101429;27;20044;-72
2022/06/20 09:40:06;;;;;;;9.32;2.40;;;15.90;77.10;;;;;;5103722;27;20031;-73
2022/06/20 09:42:49;;;;;;;5.05;2.25;;;15.90;76.60;;;;;;5102821;28;20055;-71
2022/06/20 09:45:44;;;;;;;5.10;2.53;;;15.90;76.30;;;;;;5107298;28;20024;-72
2022/06/20 09:48:35;;;;;;;4.05;2.53;;;16.00;75.70;;;;;;5103750;28;20027;-73
2022/06/20 09:51:09;;;;;;;4.25;2.33;;;16.00;74.90;;;;;;5099835;27;20032;-73
2022/06/20 09:54:14;;;;;;;4.25;2.50;;;16.10;74.50;;;;;;5106622;27;20023;-73
2022/06/20 09:57:10;;;;;;;5.68;3.05;;;16.10;73.70;;;;;;5064818;28;20389;-71
2022/06/20 09:59:50;;;;;;;10.50;3.13;;;16.10;72.60;;;;;;5105760;28;20027;-75
2022/06/20 10:02:51;;;;;;;7.57;3.10;;;16.20;72.50;;;;;;5102858;28;20783;-71
2022/06/20 10:05:36;;;;;;;4.50;2.60;;;16.30;72.20;;;;;;5104653;28;20050;-72
2022/06/20 10:08:33;;;;;;;4.20;1.83;;;16.30;71.00;;;;;;5102039;28;20024;-70
2022/06/20 10:11:14;;;;;;;7.25;2.30;;;16.30;70.20;;;;;;5103366;28;20027;-72
2022/06/20 10:13:54;;;;;;;4.30;2.60;;;16.40;69.40;;;;;;5099544;28;20015;-74
2022/06/20 10:16:44;;;;;;;4.60;2.72;;;16.50;69.10;;;;;;5102326;28;20039;-71
2022/06/20 10:19:35;;;;;;;7.22;2.85;;;16.60;69.10;;;;;;5100836;28;20023;-74
2022/06/20 10:22:08;;;;;;;8.90;2.85;;;16.60;68.90;;;;;;5101336;28;20375;-72
2022/06/20 10:25:32;;;;;;;3.78;1.92;;;16.70;68.40;;;;;;5104851;28;20474;-73
2022/06/20 10:28:56;;;;;;;4.45;1.92;;;16.80;68.60;;;;;;5027239;28;20403;-71
2022/06/20 10:31:31;;;;;;;5.55;2.58;;;16.80;67.80;;;;;;5043264;28;20037;-71
2022/06/20 10:34:58;;;;;;;3.33;1.52;;;16.90;66.40;;;;;;5096627;28;20371;-72
2022/06/20 10:37:44;;;;;;;2.38;1.30;;;17.00;66.00;;;;;;5102387;28;20075;-74
2022/06/20 10:40:33;;;;;;;1.73;1.30;;;17.10;64.00;;;;;;5101727;28;20046;-74
2022/06/20 10:43:45;;;;;;;3.22;1.10;;;17.10;63.60;;;;;;5104666;28;20040;-72
2022/06/20 10:46:37;;;;;;;1.73;0.90;;;17.20;63.00;;;;;;5103168;28;20105;-73
2022/06/20 10:49:15;;;;;;;2.20;0.63;;;17.20;61.70;;;;;;5100706;28;20021;-74
2022/06/20 10:52:23;;;;;;;8.48;1.58;;;17.30;61.00;;;;;;5100484;28;20041;-75
2022/06/20 10:55:12;;;;;;;2.20;0.77;;;17.40;61.00;;;;;;5107153;28;20026;-73
2022/06/20 10:58:17;;;;;;;8.65;1.02;;;17.50;61.40;;;;;;5096691;28;20370;-73
2022/06/20 11:01:12;;;;;;;5.45;0.73;;;17.50;60.40;;;;;;5099179;28;20109;-71
2022/06/20 11:04:05;;;;;;;1.97;0.63;;;17.60;59.80;;;;;;5104151;28;20030;-72
2022/06/20 11:07:12;;;;;;;4.55;0.80;;;17.70;58.60;;;;;;5100013;28;21501;-71
2022/06/20 11:09:45;;;;;;;4.47;1.15;;;17.70;58.80;;;;;;5099636;28;20043;-70
2022/06/20 11:12:20;;;;;;;1.13;0.50;;;17.80;58.00;;;;;;5101534;28;20168;-73
2022/06/20 11:14:49;;;;;;;9.68;1.10;;;17.90;58.10;;;;;;5102383;28;20034;-73
2022/06/20 11:17:39;;;;;;;2.13;0.65;;;17.90;58.00;;;;;;5104508;28;20478;-70
2022/06/20 11:20:58;;;;;;;0.90;0.50;;;18.00;57.40;;;;;;5097426;28;20076;-71
2022/06/20 11:23:45;;;;;;;2.65;0.88;;;18.10;57.10;;;;;;5102952;28;20024;-73
2022/06/20 11:26:32;;;;;;;4.13;1.05;;;18.10;57.10;;;;;;5083764;28;20028;-73
2022/06/20 11:29:24;;;;;;;2.40;0.82;;;18.20;56.40;;;;;;5102923;28;20058;-72
2022/06/20 11:32:13;;;;;;;2.70;0.80;;;18.20;55.60;;;;;;5100022;28;20035;-71
2022/06/20 11:35:18;;;;;;;6.18;1.05;;;18.30;54.70;;;;;;5100276;28;20494;-72
2022/06/20 11:38:11;;;;;;;1.88;0.93;;;18.30;54.50;;;;;;5101212;28;20132;-72
2022/06/20 11:40:46;;;;;;;2.97;1.20;;;18.30;54.80;;;;;;5102224;28;20586;-72
2022/06/20 11:43:55;;;;;;;4.28;1.10;;;18.40;54.20;;;;;;5098988;28;20510;-72
2022/06/20 11:46:50;;;;;;;3.13;1.10;;;18.40;54.50;;;;;;5102685;28;20050;-73
2022/06/20 11:49:51;;;;;;;6.28;1.60;;;18.50;54.80;;;;;;5097486;28;20036;-73
2022/06/20 11:52:43;;;;;;;2.55;1.33;;;18.50;54.30;;;;;;5101061;28;20491;-74
2022/06/20 11:55:48;;;;;;;4.22;1.33;;;18.60;54.00;;;;;;5105099;28;20032;-70
2022/06/20 11:59:20;;;;;;;3.42;1.17;;;18.70;54.40;;;;;;5102460;28;20047;-77
2022/06/20 12:02:25;;;;;;;5.55;1.20;;;18.70;54.00;;;;;;5101621;28;20458;-74
2022/06/20 12:05:42;;;;;;;2.40;1.05;;;18.80;53.40;;;;;;5100754;28;20039;-77
2022/06/20 12:08:47;;;;;;;2.08;0.93;;;18.80;53.50;;;;;;5101921;28;20606;-75
2022/06/20 12:11:39;;;;;;;2.15;0.98;;;18.90;53.50;;;;;;5092892;28;20040;-72
2022/06/20 12:14:27;;;;;;;1.75;1.05;;;18.90;53.00;;;;;;5092404;28;20040;-74
2022/06/20 12:16:53;;;;;;;3.10;0.90;;;19.00;53.10;;;;;;5095255;28;20035;-75
2022/06/20 12:26:32;;;;;;;1.92;1.23;;;19.10;52.30;;;;;;5103269;27;20046;-74
2022/06/20 12:29:38;;;;;;;1.50;0.57;;;19.10;52.30;;;;;;5100455;27;20122;-74
2022/06/20 12:32:44;;;;;;;1.40;0.50;;;19.10;51.90;;;;;;5100668;28;20020;-75
2022/06/20 12:36:05;;;;;;;4.22;1.17;;;19.20;52.10;;;;;;5106334;28;20047;-74
2022/06/20 12:39:20;;;;;;;2.72;0.88;;;19.20;51.20;;;;;;5104779;28;20032;-74
2022/06/20 12:42:07;;;;;;;1.23;0.70;;;19.20;50.90;;;;;;5105073;28;20566;-72
2022/06/20 12:45:02;;;;;;;3.25;1.35;;;19.30;51.60;;;;;;5102220;28;20039;-73
2022/06/20 12:48:22;;;;;;;2.47;0.73;;;19.30;51.50;;;;;;5064285;28;20032;-75
2022/06/20 12:51:09;;;;;;;1.20;0.60;;;19.30;51.10;;;;;;5105067;28;20024;-74
2022/06/20 12:54:01;;;;;;;5.38;0.75;;;19.30;50.40;;;;;;5103366;28;20517;-74
2022/06/20 12:57:18;;;;;;;1.65;0.60;;;19.40;50.30;;;;;;5098034;28;20055;-71
2022/06/20 13:00:39;;;;;;;1.75;0.60;;;19.40;50.30;;;;;;5101348;28;20055;-74
2022/06/20 13:03:45;;;;;;;2.13;0.40;;;19.40;49.70;;;;;;5098570;28;20028;-74
2022/06/20 13:06:53;;;;;;;2.22;0.60;;;19.50;50.40;;;;;;5103369;28;20334;-75
2022/06/20 13:09:37;;;;;;;2.08;0.82;;;19.50;50.20;;;;;;5106823;28;20028;-74
2022/06/20 13:12:42;;;;;;;2.28;0.52;;;19.50;49.60;;;;;;5105074;28;20024;-72
2022/06/20 13:16:03;;;;;;;2.67;0.75;;;19.50;49.60;;;;;;5104139;28;20065;-73
2022/06/20 13:19:24;;;;;;;2.30;0.43;;;19.50;49.70;;;;;;5103772;28;20111;-73
2022/06/20 13:22:14;;;;;;;1.10;0.60;;;19.50;49.90;;;;;;5106735;28;20055;-74
2022/06/20 13:25:18;;;;;;;3.38;0.98;;;19.50;50.00;;;;;;5104882;28;20074;-76
2022/06/20 13:28:30;;;;;;;3.58;0.77;;;19.50;50.10;;;;;;5103998;28;20943;-74
2022/06/20 13:31:38;;;;;;;1.60;0.80;;;19.50;50.50;;;;;;5101081;28;20039;-72
2022/06/20 13:34:11;;;;;;;2.55;0.68;;;19.50;51.00;;;;;;5104022;28;20088;-75
2022/06/20 13:37:26;;;;;;;2.45;1.10;;;19.50;50.80;;;;;;5102154;28;20073;-74
2022/06/20 13:40:24;;;;;;;5.30;0.75;;;19.50;51.10;;;;;;5103840;28;20040;-72
2022/06/20 13:43:00;;;;;;;2.00;0.75;;;19.50;52.80;;;;;;5103741;28;20036;-72
2022/06/20 13:45:52;;;;;;;3.60;1.10;;;19.50;52.70;;;;;;5102938;28;20381;-74
2022/06/20 13:48:21;;;;;;;1.95;0.80;;;19.50;52.50;;;;;;5089831;28;20432;-74
2022/06/20 13:51:06;;;;;;;1.88;1.08;;;19.50;51.90;;;;;;5100518;28;20640;-73
2022/06/20 13:54:12;;;;;;;3.05;0.77;;;19.50;52.10;;;;;;5104318;28;20040;-73
2022/06/20 13:56:58;;;;;;;;;;;19.50;51.90;;;;;;5095853;28;20094;-74
2022/06/20 14:00:20;;;;;;;1.20;0.35;;;19.50;51.70;;;;;;5106124;28;19904;-76
2022/06/20 14:03:12;;;;;;;2.42;0.70;;;19.50;51.40;;;;;;5098862;27;20105;-75
2022/06/20 14:06:27;;;;;;;1.23;0.63;;;19.40;50.70;;;;;;5101551;28;20056;-73
2022/06/20 14:09:36;;;;;;;7.68;1.23;;;19.40;50.80;;;;;;5098564;28;20518;-74
2022/06/20 14:12:06;;;;;;;5.60;0.70;;;19.40;50.30;;;;;;5093882;28;20066;-76
2022/06/20 14:14:46;;;;;;;9.13;1.20;;;19.40;50.10;;;;;;5100794;28;20127;-75
2022/06/20 14:17:17;;;;;;;11.63;1.65;;;19.30;49.90;;;;;;5096880;28;20051;-74
2022/06/20 14:20:02;;;;;;;2.83;0.55;;;19.30;50.10;;;;;;5103737;28;20047;-76
2022/06/20 14:22:39;;;;;;;10.50;3.53;;;19.30;50.00;;;;;;5100039;28;20032;-81
2022/06/20 14:25:41;;;;;;;19.48;11.35;;;19.30;49.80;;;;;;5106061;28;20039;-76
2022/06/20 14:28:52;;;;;;;12.23;5.53;;;19.20;50.30;;;;;;5099022;28;20035;-79
2022/06/20 14:31:35;;;;;;;5.45;4.05;;;19.20;52.00;;;;;;5102795;27;20042;-75
2022/06/20 14:34:38;;;;;;;6.10;2.85;;;19.20;52.20;;;;;;5098871;27;20023;-79
2022/06/20 14:37:16;;;;;;;3.08;1.90;;;19.20;52.10;;;;;;5102913;27;20055;-80
2022/06/20 14:39:51;;;;;;;1.67;1.30;;;19.10;52.40;;;;;;5102140;27;20036;-77